Terminal Aerodrome Forecast
Issued by NWS Bismarck, ND

Home | Current Version | Previous Version | Graphics & Text | Print | Product List | Glossary On
Versions: 1 2 3 4 5 6 7 8 9 10 11 12 13 14 15 16 17
856
FTUS43 KBIS 251720
TAFBIS
TAF
KBIS 251720Z 2518/2618 31026G39KT P6SM SCT050
     FM252100 31023G32KT P6SM SKC
     FM260100 31012G20KT P6SM SKC
     FM260300 30008KT P6SM SKC=

USA.gov is the U.S. government's official web portal to all federal, state and local government web resources and services.